1M4 weather

Posey Field
Haleyville, Alabama, United States

Public forecast

Using degrees Fahrenheit for public forecast. Weather courtesy of forecast.io.

Current aviation weather report (METAR) for Posey Field

Retrieved 2019/10/17 06:56 UTC (54 minutes ago):

K1M4 170656Z AUTO 00000KT 10SM CLR 07/05 A3007 RMK AO2 SLP670 T00670050

Closest aviation forecast (TAF) to Posey Field

Closest forecast is Northwest Alabama Regional Airport, 27.9 nm (51.7 km) N. Retrieved 2019/10/17 06:33 UTC (1 hour ago):

TAF KMSL 170530Z 1706/1806 35004KT P6SM SKC